Shafter, California
Current Conditions -  °F | °C
As of 4:28 AM on Monday 26 Jan 2015 (Local Time) from KBFL Reporting Station
Haze Haze  
Wind Chill: 42°   Ceiling: Unl
Heat Index: 42°   Visibility: 3mi
Dew Point: 39°   Wind: 0mph
Humidity: 89%   Direction: NA
Pressure: 30.04"   Gusts: NA
Location:  35.5°N, 119.27°W
Report Text: KBFL 261228Z AUTO 00000KT 3SM BR CLR 06/04 A3004 RMK AO2 T00560039
Loading
Personal Weather Stations






























Interactive Weather Map New forecast layout! Learn more

10-Day Weather Forecast

Advertisements
Track Severe Weather on mobile